createdAt,value
2023-02-22T00:02:10.789Z,99475.50
2023-02-22T00:04:39.787Z,99491.34
2023-02-22T00:07:07.190Z,99483.38
2023-02-22T00:09:34.126Z,99482.97
2023-02-22T00:12:01.415Z,99487.38
2023-02-22T00:14:28.605Z,99494.00
2023-02-22T00:16:59.792Z,99489.50
2023-02-22T00:19:28.174Z,99495.09
2023-02-22T00:21:55.168Z,99501.53
2023-02-22T00:24:25.178Z,99502.94
2023-02-22T00:26:56.136Z,99511.59
2023-02-22T00:29:24.238Z,99498.56
2023-02-22T00:31:51.405Z,99492.59
2023-02-22T00:34:18.314Z,99501.81
2023-02-22T00:36:49.133Z,99501.91
2023-02-22T00:39:16.136Z,99489.81
2023-02-22T00:41:43.415Z,99488.97
2023-02-22T00:44:10.658Z,99490.56
2023-02-22T00:46:39.314Z,99498.50
2023-02-22T00:49:06.911Z,99484.06
2023-02-22T00:51:34.101Z,99496.44
2023-02-22T00:54:01.220Z,99498.44
2023-02-22T00:56:28.232Z,99491.50
2023-02-22T00:58:55.165Z,99497.63
2023-02-22T01:01:24.179Z,99496.75
2023-02-22T01:03:51.385Z,99488.41
2023-02-22T01:06:18.701Z,99492.41
2023-02-22T01:08:46.674Z,99485.69
2023-02-22T01:11:15.742Z,99496.16
2023-02-22T01:13:45.361Z,99484.41
2023-02-22T01:16:12.247Z,99489.75
2023-02-22T01:18:39.350Z,99485.56
2023-02-22T01:21:06.491Z,99481.25
2023-02-22T01:23:33.338Z,99478.16
2023-02-22T01:26:00.143Z,99477.47
2023-02-22T01:28:29.450Z,99475.34
2023-02-22T01:30:56.780Z,99478.44
2023-02-22T01:33:24.491Z,99470.03
2023-02-22T01:35:52.764Z,99475.09
2023-02-22T01:38:19.623Z,99481.97
2023-02-22T01:40:51.882Z,99491.72
2023-02-22T01:43:28.097Z,99475.09
2023-02-22T01:46:21.317Z,99472.41
2023-02-22T01:48:55.114Z,99465.59
2023-02-22T01:51:29.604Z,99472.00
2023-02-22T01:54:42.986Z,99466.00
2023-02-22T01:57:20.074Z,99461.78
2023-02-22T01:59:51.636Z,99456.19
2023-02-22T02:02:21.829Z,99470.03
2023-02-22T02:04:49.399Z,99463.19
2023-02-22T02:07:18.909Z,99464.53
2023-02-22T02:09:57.681Z,99466.59
2023-02-22T02:12:26.839Z,99470.00
2023-02-22T02:14:53.827Z,99475.44
2023-02-22T02:17:23.568Z,99474.03
2023-02-22T02:19:59.455Z,99466.81
2023-02-22T02:22:51.043Z,99475.31
2023-02-22T02:25:30.956Z,99472.50
2023-02-22T02:28:03.649Z,99480.94
2023-02-22T02:31:01.320Z,99479.75
2023-02-22T02:33:43.419Z,99475.44
2023-02-22T02:36:19.598Z,99473.53
2023-02-22T02:38:56.213Z,99478.00
2023-02-22T02:41:32.224Z,99475.47
2023-02-22T02:43:59.112Z,99487.66
2023-02-22T02:46:34.329Z,99483.78
2023-02-22T02:49:16.871Z,99494.78
2023-02-22T02:51:50.597Z,99490.38
2023-02-22T02:54:19.101Z,99495.88
2023-02-22T02:56:46.558Z,99494.88
2023-02-22T02:59:29.877Z,99496.53
2023-02-22T03:02:34.149Z,99487.81
2023-02-22T03:05:23.829Z,99477.50
2023-02-22T03:08:08.475Z,99491.00
2023-02-22T03:10:55.671Z,99491.38
2023-02-22T03:13:41.218Z,99485.97
2023-02-22T03:16:50.341Z,99496.72
2023-02-22T03:19:44.227Z,99490.09
2023-02-22T03:22:33.440Z,99494.53
2023-02-22T03:25:11.365Z,99490.41
2023-02-22T03:27:45.218Z,99495.19
2023-02-22T03:30:37.686Z,99495.69
2023-02-22T03:33:13.110Z,99499.41
2023-02-22T03:35:50.331Z,99498.13
2023-02-22T03:38:20.776Z,99501.00
2023-02-22T03:40:54.514Z,99496.53
2023-02-22T03:43:29.793Z,99506.47
2023-02-22T03:46:00.872Z,99505.16
2023-02-22T03:48:46.732Z,99507.31
2023-02-22T03:51:16.916Z,99496.28
2023-02-22T03:53:48.149Z,99504.22
2023-02-22T03:56:22.838Z,99508.03
2023-02-22T03:58:51.429Z,99496.69
2023-02-22T04:01:20.035Z,99490.41
2023-02-22T04:03:47.055Z,99492.09
2023-02-22T04:06:15.284Z,99490.84
2023-02-22T04:08:44.129Z,99492.50
2023-02-22T04:11:11.681Z,99497.34
2023-02-22T04:13:40.479Z,99488.94
2023-02-22T04:16:07.430Z,99490.53
2023-02-22T04:18:35.735Z,99491.03
2023-02-22T04:21:03.500Z,99492.50
2023-02-22T04:23:35.643Z,99494.50
2023-02-22T04:26:03.603Z,99500.38
2023-02-22T04:28:30.944Z,99489.84
2023-02-22T04:31:11.005Z,99497.59
2023-02-22T04:33:38.197Z,99480.22
2023-02-22T04:36:05.348Z,99499.50
2023-02-22T04:38:37.519Z,99498.44
2023-02-22T04:41:04.495Z,99497.72
2023-02-22T04:43:31.744Z,99494.66
2023-02-22T04:46:24.743Z,99496.88
2023-02-22T04:48:53.650Z,99501.22
2023-02-22T04:51:24.707Z,99498.44
2023-02-22T04:53:59.169Z,99501.94
2023-02-22T04:56:26.394Z,99499.72
2023-02-22T04:58:53.397Z,99497.66
2023-02-22T05:01:21.637Z,99488.47
2023-02-22T05:03:48.697Z,99504.66
2023-02-22T05:06:17.823Z,99513.25
2023-02-22T05:08:44.713Z,99514.25
2023-02-22T05:11:11.626Z,99509.47
2023-02-22T05:13:38.628Z,99508.75
2023-02-22T05:16:05.904Z,99520.69
2023-02-22T05:18:32.808Z,99525.53
2023-02-22T05:20:59.657Z,99519.78
2023-02-22T05:23:27.137Z,99523.34
2023-02-22T05:25:58.966Z,99526.06
2023-02-22T05:28:28.619Z,99532.69
2023-02-22T05:30:55.490Z,99540.38
2023-02-22T05:33:22.315Z,99547.75
2023-02-22T05:35:49.236Z,99542.56
2023-02-22T05:38:16.720Z,99543.63
2023-02-22T05:40:43.951Z,99540.88
2023-02-22T05:43:11.057Z,99559.72
2023-02-22T05:45:37.902Z,99553.94
2023-02-22T05:48:05.109Z,99560.19
2023-02-22T05:50:33.309Z,99558.81
2023-02-22T05:53:00.855Z,99563.31
2023-02-22T05:55:27.866Z,99567.16
2023-02-22T05:57:54.815Z,99557.00
2023-02-22T06:00:25.080Z,99573.47
2023-02-22T06:03:03.863Z,99569.19
2023-02-22T06:05:31.697Z,99577.34
2023-02-22T06:07:59.801Z,99578.44
2023-02-22T06:10:27.493Z,99592.94
2023-02-22T06:12:55.487Z,99583.41
2023-02-22T06:15:24.009Z,99590.75
2023-02-22T06:17:52.012Z,99587.09
2023-02-22T06:20:22.692Z,99581.28
2023-02-22T06:22:51.213Z,99588.25
2023-02-22T06:25:20.412Z,99592.00
2023-02-22T06:27:48.540Z,99595.50
2023-02-22T06:30:17.766Z,99596.63
2023-02-22T06:32:44.676Z,99604.19
2023-02-22T06:35:11.805Z,99598.41
2023-02-22T06:37:40.228Z,99598.81
2023-02-22T06:40:07.367Z,99598.22
2023-02-22T06:42:34.481Z,99611.09
2023-02-22T06:45:01.328Z,99609.38
2023-02-22T06:47:28.726Z,99609.00
2023-02-22T06:49:56.825Z,99604.50
2023-02-22T06:52:24.664Z,99602.78
2023-02-22T06:54:51.588Z,99611.22
2023-02-22T06:57:18.761Z,99599.59
2023-02-22T06:59:45.658Z,99601.53
2023-02-22T07:02:13.430Z,99596.84
2023-02-22T07:04:43.285Z,99604.13
2023-02-22T07:07:10.441Z,99598.63
2023-02-22T07:09:37.631Z,99603.97
2023-02-22T07:12:05.632Z,99600.88
2023-02-22T07:14:32.510Z,99603.03
2023-02-22T07:16:59.276Z,99589.78
2023-02-22T07:19:26.178Z,99589.59
2023-02-22T07:21:59.311Z,99588.78
2023-02-22T07:24:30.525Z,99585.91
2023-02-22T07:26:57.390Z,99593.06
2023-02-22T07:29:24.267Z,99591.06
2023-02-22T07:31:51.209Z,99588.97
2023-02-22T07:34:18.256Z,99582.53
2023-02-22T07:36:45.036Z,99582.41
2023-02-22T07:39:11.881Z,99577.41
2023-02-22T07:41:38.924Z,99574.72
2023-02-22T07:44:14.624Z,99587.47
2023-02-22T07:46:41.515Z,99584.06
2023-02-22T07:49:08.452Z,99577.34
2023-02-22T07:51:35.308Z,99572.78
2023-02-22T07:54:02.125Z,99580.34
2023-02-22T07:56:29.026Z,99585.56
2023-02-22T07:58:55.938Z,99572.03
2023-02-22T08:01:24.407Z,99571.84
2023-02-22T08:03:52.831Z,99575.53
2023-02-22T08:06:21.052Z,99577.75
2023-02-22T08:08:47.937Z,99575.25
2023-02-22T08:11:15.090Z,99589.63
2023-02-22T08:13:42.116Z,99574.91
2023-02-22T08:16:09.211Z,99575.91
2023-02-22T08:18:38.402Z,99578.22
2023-02-22T08:21:05.603Z,99575.53
2023-02-22T08:23:33.026Z,99562.47
2023-02-22T08:26:15.631Z,99557.88
2023-02-22T08:28:43.260Z,99565.91
2023-02-22T08:31:10.725Z,99558.28
2023-02-22T08:33:37.655Z,99564.03
2023-02-22T08:36:04.863Z,99558.66
2023-02-22T08:38:34.046Z,99557.97
2023-02-22T08:41:00.975Z,99551.97
2023-02-22T08:43:28.706Z,99550.63
2023-02-22T08:45:57.675Z,99549.78
2023-02-22T09:43:33.347Z,99498.81
2023-02-22T09:46:19.414Z,99492.59
2023-02-22T09:49:07.438Z,99491.19
2023-02-22T09:51:41.957Z,99484.50
2023-02-22T09:54:24.924Z,99490.00
2023-02-22T09:56:55.883Z,99481.81
2023-02-22T09:59:27.893Z,99479.22
2023-02-22T10:02:01.275Z,99475.16
2023-02-22T10:04:45.089Z,99471.09
2023-02-22T10:07:29.353Z,99467.94
2023-02-22T10:09:58.298Z,99467.44
2023-02-22T10:13:01.035Z,99466.66
2023-02-22T10:15:42.791Z,99465.78
2023-02-22T10:18:34.403Z,99464.34
2023-02-22T10:21:14.472Z,99462.84
2023-02-22T10:24:07.566Z,99447.19
2023-02-22T10:26:42.663Z,99448.22
2023-02-22T10:29:41.603Z,99443.38
2023-02-22T10:32:17.308Z,99444.81
2023-02-22T10:34:48.623Z,99439.28
2023-02-22T10:37:26.436Z,99442.84
2023-02-22T10:40:00.133Z,99442.84
2023-02-22T10:42:28.714Z,99427.63
2023-02-22T10:44:55.670Z,99428.44
2023-02-22T10:47:23.897Z,99430.78
2023-02-22T10:49:57.493Z,99426.19
2023-02-22T10:52:34.858Z,99424.78
2023-02-22T10:55:14.615Z,99427.69
2023-02-22T10:57:46.282Z,99416.94
2023-02-22T11:00:29.660Z,99409.84
2023-02-22T11:02:59.655Z,99420.16
2023-02-22T11:05:36.788Z,99407.59
2023-02-22T11:08:22.372Z,99416.53
2023-02-22T11:10:54.538Z,99406.56
2023-02-22T11:13:28.741Z,99414.06
2023-02-22T11:16:00.308Z,99410.28
2023-02-22T11:18:33.750Z,99416.31
2023-02-22T11:21:08.003Z,99393.66
2023-02-22T11:23:37.059Z,99398.81
2023-02-22T11:26:09.139Z,99407.06
2023-02-22T11:28:37.441Z,99400.28
2023-02-22T11:31:15.897Z,99410.50
2023-02-22T11:34:00.608Z,99381.16
2023-02-22T11:36:40.996Z,99379.78
2023-02-22T11:39:34.416Z,99391.56
2023-02-22T11:42:28.049Z,99379.53
2023-02-22T11:45:11.332Z,99385.06
2023-02-22T11:48:03.000Z,99379.75
2023-02-22T11:50:54.365Z,99387.03
2023-02-22T11:53:49.490Z,99380.72
2023-02-22T11:56:28.463Z,99379.53
2023-02-22T11:59:15.156Z,99379.31
2023-02-22T12:01:47.863Z,99377.38
2023-02-22T12:04:26.880Z,99378.97
2023-02-22T12:07:03.003Z,99373.38
2023-02-22T12:10:05.664Z,99375.66
2023-02-22T12:12:44.481Z,99369.72
2023-02-22T12:15:36.937Z,99373.25
2023-02-22T12:18:15.651Z,99377.75
2023-02-22T12:21:07.895Z,99378.97
2023-02-22T12:23:51.412Z,99367.13
2023-02-22T12:26:26.578Z,99363.59
2023-02-22T12:28:59.412Z,99371.34
2023-02-22T12:31:36.076Z,99373.75
2023-02-22T12:34:09.815Z,99366.03
2023-02-22T12:36:55.048Z,99370.13
2023-02-22T12:39:47.120Z,99361.09
2023-02-22T12:42:26.263Z,99368.31
2023-02-22T12:45:01.056Z,99366.84
2023-02-22T12:47:45.980Z,99364.22
2023-02-22T12:50:19.339Z,99368.59
2023-02-22T12:52:56.114Z,99364.56
2023-02-22T12:55:56.727Z,99367.59
2023-02-22T12:58:37.936Z,99372.31
2023-02-22T13:01:12.178Z,99368.31
2023-02-22T13:03:44.194Z,99371.88
2023-02-22T13:06:33.651Z,99363.13
2023-02-22T13:09:24.554Z,99370.66
2023-02-22T13:12:16.101Z,99365.41
2023-02-22T13:15:04.567Z,99366.72
2023-02-22T13:17:43.438Z,99372.19
2023-02-22T13:20:29.276Z,99371.38
2023-02-22T13:23:14.307Z,99365.78
2023-02-22T13:26:04.114Z,99372.31
2023-02-22T13:28:39.726Z,99369.41
2023-02-22T13:31:27.541Z,99367.72
2023-02-22T13:34:13.167Z,99374.53
2023-02-22T13:36:58.272Z,99376.56
2023-02-22T13:39:55.855Z,99379.63
2023-02-22T13:42:31.752Z,99365.88
2023-02-22T13:45:27.700Z,99373.56
2023-02-22T13:48:16.147Z,99368.16
2023-02-22T13:50:58.535Z,99374.63
2023-02-22T13:53:30.547Z,99367.41
2023-02-22T13:56:00.813Z,99376.13
2023-02-22T13:58:28.001Z,99376.41
2023-02-22T14:00:59.598Z,99376.25
2023-02-22T14:03:36.126Z,99382.13
2023-02-22T14:06:42.046Z,99380.34
2023-02-22T14:09:14.723Z,99386.34
2023-02-22T14:11:48.442Z,99384.88
2023-02-22T14:14:17.851Z,99386.13
2023-02-22T14:16:45.038Z,99373.09
2023-02-22T14:19:23.876Z,99382.69
2023-02-22T14:22:03.821Z,99391.19
2023-02-22T14:24:47.824Z,99389.31
2023-02-22T14:27:17.882Z,99386.63
2023-02-22T14:30:05.798Z,99385.81
2023-02-22T14:32:35.452Z,99377.28
2023-02-22T14:35:25.462Z,99385.50
2023-02-22T14:37:57.772Z,99380.13
2023-02-22T14:40:30.305Z,99378.47
2023-02-22T14:43:20.026Z,99385.69
2023-02-22T14:45:50.095Z,99380.31
2023-02-22T14:48:20.454Z,99384.19
2023-02-22T14:50:53.149Z,99393.16
2023-02-22T14:53:46.153Z,99386.72
2023-02-22T14:56:23.195Z,99388.72
2023-02-22T14:58:57.641Z,99384.69
2023-02-22T15:01:47.266Z,99395.03
2023-02-22T15:04:27.234Z,99391.72
2023-02-22T15:07:00.052Z,99389.56
2023-02-22T15:09:32.971Z,99390.28
2023-02-22T15:12:04.645Z,99386.81
2023-02-22T15:14:37.746Z,99395.66
2023-02-22T15:17:12.507Z,99399.22
2023-02-22T15:19:41.758Z,99397.13
2023-02-22T15:22:21.128Z,99392.41
2023-02-22T15:25:01.316Z,99393.16
2023-02-22T15:27:29.091Z,99395.88
2023-02-22T15:30:04.808Z,99398.84
2023-02-22T15:32:50.003Z,99391.25
2023-02-22T15:35:28.553Z,99401.09
2023-02-22T15:38:20.240Z,99402.13
2023-02-22T15:40:50.908Z,99400.81
2023-02-22T15:43:24.478Z,99404.03
2023-02-22T15:45:52.426Z,99408.69
2023-02-22T15:48:19.811Z,99408.31
2023-02-22T15:51:13.676Z,99414.94
2023-02-22T15:53:43.984Z,99414.72
2023-02-22T15:56:19.239Z,99419.50
2023-02-22T15:58:47.746Z,99424.84
2023-02-22T16:01:19.194Z,99429.97
2023-02-22T16:03:51.562Z,99419.44
2023-02-22T16:06:28.908Z,99420.53
2023-02-22T16:08:58.941Z,99430.88
2023-02-22T16:11:35.314Z,99434.22
2023-02-22T16:14:05.708Z,99442.13
2023-02-22T16:16:35.002Z,99433.22
2023-02-22T16:19:24.958Z,99448.59
2023-02-22T16:22:03.167Z,99451.91
2023-02-22T16:24:36.602Z,99449.69
2023-02-22T16:27:18.725Z,99454.56
2023-02-22T16:30:25.509Z,99463.94
2023-02-22T16:32:57.374Z,99453.59
2023-02-22T16:35:29.431Z,99467.47
2023-02-22T16:38:01.848Z,99477.41
2023-02-22T16:40:34.625Z,99479.75
2023-02-22T16:43:11.805Z,99499.38
2023-02-22T16:45:40.663Z,99500.28
2023-02-22T16:48:17.327Z,99519.84
2023-02-22T16:50:44.224Z,99534.41
2023-02-22T16:53:11.250Z,99542.84
2023-02-22T16:55:38.204Z,99547.19
2023-02-22T16:58:05.647Z,99552.13
2023-02-22T17:00:32.567Z,99558.31
2023-02-22T17:03:03.960Z,99562.09
2023-02-22T17:05:36.197Z,99567.53
2023-02-22T17:08:06.344Z,99577.47
2023-02-22T17:10:34.251Z,99592.00
2023-02-22T17:13:12.717Z,99587.81
2023-02-22T17:15:47.123Z,99590.31
2023-02-22T17:18:16.464Z,99602.91
2023-02-22T17:20:45.146Z,99611.69
2023-02-22T17:23:12.499Z,99622.50
2023-02-22T17:25:56.194Z,99629.84
2023-02-22T17:28:24.840Z,99631.72
2023-02-22T17:30:53.216Z,99637.75
2023-02-22T17:33:26.765Z,99642.25
2023-02-22T17:35:55.727Z,99651.47
2023-02-22T17:38:23.042Z,99645.16
2023-02-22T17:40:52.125Z,99653.44
2023-02-22T17:43:19.524Z,99651.19
2023-02-22T17:45:47.448Z,99657.50
2023-02-22T17:48:16.110Z,99660.94
2023-02-22T17:50:45.143Z,99659.44
2023-02-22T17:53:12.691Z,99657.44
2023-02-22T17:55:42.184Z,99663.84
2023-02-22T17:58:14.687Z,99658.25
2023-02-22T18:00:44.891Z,99658.31
2023-02-22T18:03:21.530Z,99649.25
2023-02-22T18:05:50.466Z,99658.41
2023-02-22T18:08:17.546Z,99644.00
2023-02-22T18:10:45.701Z,99654.63
2023-02-22T18:13:16.844Z,99653.25
2023-02-22T18:15:47.486Z,99652.06
2023-02-22T18:18:16.377Z,99661.16
2023-02-22T18:20:49.031Z,99664.59
2023-02-22T18:23:19.674Z,99669.63
2023-02-22T18:26:07.527Z,99663.63
2023-02-22T18:28:35.950Z,99659.19
2023-02-22T18:31:10.403Z,99659.97
2023-02-22T18:33:37.253Z,99660.44
2023-02-22T18:36:04.734Z,99664.00
2023-02-22T18:38:32.040Z,99661.91
2023-02-22T18:41:03.167Z,99662.53
2023-02-22T18:43:31.917Z,99668.88
2023-02-22T18:46:08.331Z,99661.72
2023-02-22T18:48:35.754Z,99656.66
2023-02-22T18:51:03.942Z,99666.84
2023-02-22T18:53:30.762Z,99663.94
2023-02-22T18:56:02.687Z,99654.75
2023-02-22T18:58:32.429Z,99655.88
2023-02-22T19:01:01.501Z,99662.88
2023-02-22T19:03:29.463Z,99661.53
2023-02-22T19:06:04.239Z,99673.22
2023-02-22T19:08:32.554Z,99663.63
2023-02-22T19:11:04.564Z,99672.47
2023-02-22T19:13:33.186Z,99676.50
2023-02-22T19:16:03.385Z,99672.41
2023-02-22T19:18:30.808Z,99677.38
2023-02-22T19:20:59.047Z,99677.25
2023-02-22T19:23:25.936Z,99682.69
2023-02-22T19:25:53.148Z,99681.72
2023-02-22T19:28:20.480Z,99685.13
2023-02-22T19:30:47.380Z,99687.78
2023-02-22T19:33:14.300Z,99688.25
2023-02-22T19:35:48.172Z,99692.31
2023-02-22T19:38:15.492Z,99692.50
2023-02-22T19:40:42.480Z,99687.66
2023-02-22T19:43:09.256Z,99690.88
2023-02-22T19:45:40.005Z,99700.78
2023-02-22T19:48:06.923Z,99692.69
2023-02-22T19:50:33.906Z,99697.69
2023-02-22T19:53:00.825Z,99702.75
2023-02-22T19:55:32.320Z,99703.13
2023-02-22T19:57:59.472Z,99703.91
2023-02-22T20:00:27.879Z,99708.69
2023-02-22T20:03:05.862Z,99706.06
2023-02-22T20:05:33.565Z,99711.47
2023-02-22T20:08:00.409Z,99706.19
2023-02-22T20:10:27.282Z,99709.78
2023-02-22T20:12:54.066Z,99712.81
2023-02-22T20:15:23.951Z,99712.53
2023-02-22T20:17:51.487Z,99714.28
2023-02-22T20:20:18.701Z,99718.44
2023-02-22T20:22:45.810Z,99718.03
2023-02-22T20:25:13.716Z,99713.69
2023-02-22T20:27:40.741Z,99715.28
2023-02-22T20:30:10.517Z,99716.09
2023-02-22T20:32:41.527Z,99716.94
2023-02-22T20:35:08.777Z,99708.25
2023-02-22T20:37:35.676Z,99714.91
2023-02-22T20:40:04.862Z,99712.25
2023-02-22T20:42:32.074Z,99710.34
2023-02-22T20:45:01.964Z,99713.25
2023-02-22T20:47:28.895Z,99713.13
2023-02-22T20:49:55.718Z,99714.00
2023-02-22T20:52:22.595Z,99708.47
2023-02-22T20:54:49.505Z,99712.53
2023-02-22T20:57:16.309Z,99713.97
2023-02-22T20:59:44.471Z,99713.78
2023-02-22T21:02:11.439Z,99714.13
2023-02-22T21:04:38.312Z,99716.78
2023-02-22T21:07:05.332Z,99724.44
2023-02-22T21:09:33.892Z,99717.00
2023-02-22T21:12:00.862Z,99710.59
2023-02-22T21:14:28.493Z,99717.84
2023-02-22T21:16:55.367Z,99719.78
2023-02-22T21:19:25.793Z,99718.81
2023-02-22T21:21:58.048Z,99713.75
2023-02-22T21:24:25.636Z,99713.88
2023-02-22T21:26:52.532Z,99718.19
2023-02-22T21:29:19.665Z,99714.66
2023-02-22T21:31:46.632Z,99707.56
2023-02-22T21:34:17.601Z,99703.47
2023-02-22T21:36:45.495Z,99705.69
2023-02-22T21:39:19.140Z,99710.47
2023-02-22T21:41:48.201Z,99704.69
2023-02-22T21:44:15.644Z,99704.13
2023-02-22T21:46:43.077Z,99709.03
2023-02-22T21:49:11.791Z,99702.06
2023-02-22T21:51:38.837Z,99705.06
2023-02-22T21:54:08.636Z,99696.94
2023-02-22T21:56:38.384Z,99701.88
2023-02-22T21:59:14.164Z,99700.34
2023-02-22T22:01:47.233Z,99696.13
2023-02-22T22:04:20.128Z,99705.34
2023-02-22T22:06:48.909Z,99700.41
2023-02-22T22:09:18.774Z,99697.78
2023-02-22T22:11:53.832Z,99701.25
2023-02-22T22:14:23.577Z,99697.81
2023-02-22T22:16:53.287Z,99705.97
2023-02-22T22:19:20.198Z,99701.13
2023-02-22T22:21:47.146Z,99701.50
2023-02-22T22:24:14.015Z,99706.56
2023-02-22T22:26:40.970Z,99699.66
2023-02-22T22:29:11.556Z,99703.44
2023-02-22T22:31:38.903Z,99701.72
2023-02-22T22:34:06.335Z,99699.81
2023-02-22T22:36:34.554Z,99701.47
2023-02-22T22:39:01.627Z,99704.19
2023-02-22T22:41:28.512Z,99704.75
2023-02-22T22:43:56.252Z,99697.50
2023-02-22T22:46:23.413Z,99699.63
2023-02-22T22:48:50.345Z,99698.94
2023-02-22T22:51:20.660Z,99695.66
2023-02-22T22:53:49.494Z,99701.91
2023-02-22T22:56:19.628Z,99699.69
2023-02-22T22:58:52.160Z,99693.56
2023-02-22T23:01:26.982Z,99697.69
2023-02-22T23:03:58.706Z,99700.44
2023-02-22T23:06:31.009Z,99690.97
2023-02-22T23:09:00.462Z,99691.09
2023-02-22T23:11:30.205Z,99694.38
2023-02-22T23:13:57.198Z,99690.63
2023-02-22T23:16:24.673Z,99691.59
2023-02-22T23:18:51.684Z,99698.69
2023-02-22T23:21:19.910Z,99695.19
2023-02-22T23:23:51.592Z,99693.94
2023-02-22T23:26:18.575Z,99697.63
2023-02-22T23:28:47.913Z,99699.25
2023-02-22T23:31:17.203Z,99698.81
2023-02-22T23:33:48.383Z,99697.84
2023-02-22T23:36:17.236Z,99704.69
2023-02-22T23:38:45.043Z,99699.31
2023-02-22T23:41:19.095Z,99703.97
2023-02-22T23:43:46.342Z,99703.56
2023-02-22T23:46:18.810Z,99706.50
2023-02-22T23:48:54.898Z,99703.25
2023-02-22T23:51:27.138Z,99701.63
2023-02-22T23:53:58.465Z,99704.06
2023-02-22T23:56:27.311Z,99705.84
2023-02-22T23:58:57.536Z,99701.03
